sensor_id;sensor_type;location;lat;lon;timestamp;P1;durP1;ratioP1;P2;durP2;ratioP2
76296;SDS011;65104;52.994;6.552;2023-04-01T00:00:50;6.00;;;4.10;;
76296;SDS011;65104;52.994;6.552;2023-04-01T00:03:17;5.65;;;3.75;;
76296;SDS011;65104;52.994;6.552;2023-04-01T00:05:43;5.20;;;3.92;;
76296;SDS011;65104;52.994;6.552;2023-04-01T00:08:08;5.97;;;4.05;;
76296;SDS011;65104;52.994;6.552;2023-04-01T00:10:33;5.80;;;3.38;;
76296;SDS011;65104;52.994;6.552;2023-04-01T00:12:59;7.32;;;4.72;;
76296;SDS011;65104;52.994;6.552;2023-04-01T00:15:24;6.07;;;3.60;;
76296;SDS011;65104;52.994;6.552;2023-04-01T00:17:50;5.70;;;4.13;;
76296;SDS011;65104;52.994;6.552;2023-04-01T00:20:15;6.32;;;4.20;;
76296;SDS011;65104;52.994;6.552;2023-04-01T00:22:41;5.80;;;4.28;;
76296;SDS011;65104;52.994;6.552;2023-04-01T00:25:06;5.38;;;4.10;;
76296;SDS011;65104;52.994;6.552;2023-04-01T00:27:32;7.22;;;4.05;;
76296;SDS011;65104;52.994;6.552;2023-04-01T00:29:58;7.03;;;4.13;;
76296;SDS011;65104;52.994;6.552;2023-04-01T00:32:23;6.38;;;3.85;;
76296;SDS011;65104;52.994;6.552;2023-04-01T00:34:52;7.55;;;4.53;;
76296;SDS011;65104;52.994;6.552;2023-04-01T00:37:19;6.35;;;3.88;;
76296;SDS011;65104;52.994;6.552;2023-04-01T00:42:11;9.20;;;4.22;;
76296;SDS011;65104;52.994;6.552;2023-04-01T00:44:37;8.02;;;4.90;;
76296;SDS011;65104;52.994;6.552;2023-04-01T00:47:03;6.25;;;3.95;;
76296;SDS011;65104;52.994;6.552;2023-04-01T00:49:39;6.00;;;4.45;;
76296;SDS011;65104;52.994;6.552;2023-04-01T00:52:08;7.03;;;4.43;;
76296;SDS011;65104;52.994;6.552;2023-04-01T00:54:38;7.75;;;4.57;;
76296;SDS011;65104;52.994;6.552;2023-04-01T00:57:12;7.38;;;4.57;;
76296;SDS011;65104;52.994;6.552;2023-04-01T00:59:41;6.35;;;4.35;;
76296;SDS011;65104;52.994;6.552;2023-04-01T01:02:09;7.35;;;4.40;;
76296;SDS011;65104;52.994;6.552;2023-04-01T01:04:37;7.40;;;4.18;;
76296;SDS011;65104;52.994;6.552;2023-04-01T01:07:10;6.88;;;4.88;;
76296;SDS011;65104;52.994;6.552;2023-04-01T01:15:49;9.23;;;4.72;;
76296;SDS011;65104;52.994;6.552;2023-04-01T01:21:23;6.18;;;4.20;;
76296;SDS011;65104;52.994;6.552;2023-04-01T01:24:22;8.20;;;4.13;;
76296;SDS011;65104;52.994;6.552;2023-04-01T01:26:59;8.70;;;4.28;;
76296;SDS011;65104;52.994;6.552;2023-04-01T01:38:17;5.55;;;3.45;;
76296;SDS011;65104;52.994;6.552;2023-04-01T01:40:47;6.50;;;3.85;;
76296;SDS011;65104;52.994;6.552;2023-04-01T01:43:19;5.72;;;3.88;;
76296;SDS011;65104;52.994;6.552;2023-04-01T01:45:49;4.70;;;3.25;;
76296;SDS011;65104;52.994;6.552;2023-04-01T01:48:18;4.80;;;3.30;;
76296;SDS011;65104;52.994;6.552;2023-04-01T01:50:44;3.25;;;2.45;;
76296;SDS011;65104;52.994;6.552;2023-04-01T01:55:39;3.22;;;2.30;;
76296;SDS011;65104;52.994;6.552;2023-04-01T01:58:48;4.28;;;2.17;;
76296;SDS011;65104;52.994;6.552;2023-04-01T02:01:02;3.22;;;2.03;;
76296;SDS011;65104;52.994;6.552;2023-04-01T02:03:31;3.42;;;2.53;;
76296;SDS011;65104;52.994;6.552;2023-04-01T02:05:59;4.25;;;2.08;;
76296;SDS011;65104;52.994;6.552;2023-04-01T02:08:28;4.28;;;2.70;;
76296;SDS011;65104;52.994;6.552;2023-04-01T02:11:04;5.03;;;2.67;;
76296;SDS011;65104;52.994;6.552;2023-04-01T02:13:37;5.85;;;2.88;;
76296;SDS011;65104;52.994;6.552;2023-04-01T02:16:11;5.13;;;3.40;;
76296;SDS011;65104;52.994;6.552;2023-04-01T02:18:39;4.30;;;2.70;;
76296;SDS011;65104;52.994;6.552;2023-04-01T02:21:07;4.10;;;2.28;;
76296;SDS011;65104;52.994;6.552;2023-04-01T02:23:34;6.78;;;3.35;;
76296;SDS011;65104;52.994;6.552;2023-04-01T02:26:02;5.30;;;3.13;;
76296;SDS011;65104;52.994;6.552;2023-04-01T02:28:31;4.93;;;3.00;;
76296;SDS011;65104;52.994;6.552;2023-04-01T02:30:58;4.00;;;2.55;;
76296;SDS011;65104;52.994;6.552;2023-04-01T02:33:25;3.90;;;2.22;;
76296;SDS011;65104;52.994;6.552;2023-04-01T02:35:52;4.03;;;2.30;;
76296;SDS011;65104;52.994;6.552;2023-04-01T02:38:18;4.10;;;2.35;;
76296;SDS011;65104;52.994;6.552;2023-04-01T02:40:50;5.75;;;2.75;;
76296;SDS011;65104;52.994;6.552;2023-04-01T02:43:22;4.82;;;2.85;;
76296;SDS011;65104;52.994;6.552;2023-04-01T02:45:48;4.28;;;2.30;;
76296;SDS011;65104;52.994;6.552;2023-04-01T02:48:13;3.20;;;2.13;;
76296;SDS011;65104;52.994;6.552;2023-04-01T02:50:39;5.70;;;2.53;;
76296;SDS011;65104;52.994;6.552;2023-04-01T02:53:05;6.20;;;2.20;;
76296;SDS011;65104;52.994;6.552;2023-04-01T02:55:31;3.53;;;1.92;;
76296;SDS011;65104;52.994;6.552;2023-04-01T02:57:57;4.35;;;1.90;;
76296;SDS011;65104;52.994;6.552;2023-04-01T03:00:23;3.35;;;1.80;;
76296;SDS011;65104;52.994;6.552;2023-04-01T03:02:50;2.03;;;1.70;;
76296;SDS011;65104;52.994;6.552;2023-04-01T03:05:15;3.20;;;1.40;;
76296;SDS011;65104;52.994;6.552;2023-04-01T03:07:40;2.42;;;1.60;;
76296;SDS011;65104;52.994;6.552;2023-04-01T03:10:06;2.95;;;1.42;;
76296;SDS011;65104;52.994;6.552;2023-04-01T03:12:32;3.25;;;1.45;;
76296;SDS011;65104;52.994;6.552;2023-04-01T03:14:57;3.50;;;1.50;;
76296;SDS011;65104;52.994;6.552;2023-04-01T03:17:23;2.10;;;1.52;;
76296;SDS011;65104;52.994;6.552;2023-04-01T03:19:48;1.60;;;1.20;;
76296;SDS011;65104;52.994;6.552;2023-04-01T03:22:13;2.63;;;1.20;;
76296;SDS011;65104;52.994;6.552;2023-04-01T03:24:39;1.50;;;0.95;;
76296;SDS011;65104;52.994;6.552;2023-04-01T03:27:05;1.02;;;0.68;;
76296;SDS011;65104;52.994;6.552;2023-04-01T03:29:30;2.40;;;1.33;;
76296;SDS011;65104;52.994;6.552;2023-04-01T03:31:55;1.20;;;0.60;;
76296;SDS011;65104;52.994;6.552;2023-04-01T03:34:23;1.05;;;0.80;;
76296;SDS011;65104;52.994;6.552;2023-04-01T03:36:48;1.40;;;1.30;;
76296;SDS011;65104;52.994;6.552;2023-04-01T03:39:14;1.98;;;0.90;;
76296;SDS011;65104;52.994;6.552;2023-04-01T03:41:43;1.63;;;1.25;;
76296;SDS011;65104;52.994;6.552;2023-04-01T03:44:09;2.42;;;1.40;;
76296;SDS011;65104;52.994;6.552;2023-04-01T03:46:34;2.55;;;1.45;;
76296;SDS011;65104;52.994;6.552;2023-04-01T03:49:00;3.15;;;1.92;;
76296;SDS011;65104;52.994;6.552;2023-04-01T03:51:25;4.32;;;2.88;;
76296;SDS011;65104;52.994;6.552;2023-04-01T03:53:50;4.78;;;2.83;;
76296;SDS011;65104;52.994;6.552;2023-04-01T03:56:16;6.40;;;2.78;;
76296;SDS011;65104;52.994;6.552;2023-04-01T03:58:41;5.03;;;2.90;;
76296;SDS011;65104;52.994;6.552;2023-04-01T04:01:13;5.03;;;2.95;;
76296;SDS011;65104;52.994;6.552;2023-04-01T04:03:40;7.55;;;3.35;;
76296;SDS011;65104;52.994;6.552;2023-04-01T04:06:05;5.75;;;3.80;;
76296;SDS011;65104;52.994;6.552;2023-04-01T04:08:35;6.03;;;3.55;;
76296;SDS011;65104;52.994;6.552;2023-04-01T04:11:00;7.75;;;4.30;;
76296;SDS011;65104;52.994;6.552;2023-04-01T04:13:25;9.05;;;3.92;;
76296;SDS011;65104;52.994;6.552;2023-04-01T04:15:51;7.05;;;4.00;;
76296;SDS011;65104;52.994;6.552;2023-04-01T04:18:16;7.72;;;4.18;;
76296;SDS011;65104;52.994;6.552;2023-04-01T04:20:45;8.00;;;4.10;;
76296;SDS011;65104;52.994;6.552;2023-04-01T04:23:13;7.40;;;3.53;;
76296;SDS011;65104;52.994;6.552;2023-04-01T04:25:38;7.78;;;4.90;;
76296;SDS011;65104;52.994;6.552;2023-04-01T04:28:04;7.93;;;4.32;;
76296;SDS011;65104;52.994;6.552;2023-04-01T04:30:29;8.27;;;4.20;;
76296;SDS011;65104;52.994;6.552;2023-04-01T04:32:55;10.18;;;5.25;;
76296;SDS011;65104;52.994;6.552;2023-04-01T04:35:20;7.43;;;4.22;;
76296;SDS011;65104;52.994;6.552;2023-04-01T04:37:45;7.20;;;4.25;;
76296;SDS011;65104;52.994;6.552;2023-04-01T04:40:11;8.45;;;5.20;;
76296;SDS011;65104;52.994;6.552;2023-04-01T04:42:36;8.00;;;4.78;;
76296;SDS011;65104;52.994;6.552;2023-04-01T04:45:02;9.13;;;4.82;;
76296;SDS011;65104;52.994;6.552;2023-04-01T04:47:27;8.05;;;4.45;;
76296;SDS011;65104;52.994;6.552;2023-04-01T04:49:53;9.60;;;4.47;;
76296;SDS011;65104;52.994;6.552;2023-04-01T04:52:18;10.85;;;4.85;;
76296;SDS011;65104;52.994;6.552;2023-04-01T04:54:44;6.88;;;4.20;;
76296;SDS011;65104;52.994;6.552;2023-04-01T04:57:09;8.63;;;3.92;;
76296;SDS011;65104;52.994;6.552;2023-04-01T04:59:35;10.18;;;5.28;;
76296;SDS011;65104;52.994;6.552;2023-04-01T05:02:01;9.55;;;4.70;;
76296;SDS011;65104;52.994;6.552;2023-04-01T05:04:27;8.77;;;4.70;;
76296;SDS011;65104;52.994;6.552;2023-04-01T05:06:52;10.48;;;4.93;;
76296;SDS011;65104;52.994;6.552;2023-04-01T05:09:17;10.13;;;4.97;;
76296;SDS011;65104;52.994;6.552;2023-04-01T05:11:43;11.93;;;5.45;;
76296;SDS011;65104;52.994;6.552;2023-04-01T05:14:12;13.63;;;5.63;;
76296;SDS011;65104;52.994;6.552;2023-04-01T05:16:39;10.32;;;4.82;;
76296;SDS011;65104;52.994;6.552;2023-04-01T05:19:04;9.52;;;4.72;;
76296;SDS011;65104;52.994;6.552;2023-04-01T05:21:30;9.98;;;5.47;;
76296;SDS011;65104;52.994;6.552;2023-04-01T05:23:55;11.95;;;6.68;;
76296;SDS011;65104;52.994;6.552;2023-04-01T05:26:20;12.05;;;6.43;;
76296;SDS011;65104;52.994;6.552;2023-04-01T05:28:46;13.80;;;6.07;;
76296;SDS011;65104;52.994;6.552;2023-04-01T05:31:11;11.88;;;5.47;;
76296;SDS011;65104;52.994;6.552;2023-04-01T05:33:36;12.48;;;6.47;;
76296;SDS011;65104;52.994;6.552;2023-04-01T05:36:06;13.50;;;6.85;;
76296;SDS011;65104;52.994;6.552;2023-04-01T05:38:35;12.60;;;6.20;;
76296;SDS011;65104;52.994;6.552;2023-04-01T05:41:01;13.93;;;7.13;;
76296;SDS011;65104;52.994;6.552;2023-04-01T05:43:27;13.38;;;6.05;;
76296;SDS011;65104;52.994;6.552;2023-04-01T05:45:53;12.35;;;6.40;;
76296;SDS011;65104;52.994;6.552;2023-04-01T05:48:18;10.50;;;5.55;;
76296;SDS011;65104;52.994;6.552;2023-04-01T05:50:43;13.30;;;5.93;;
76296;SDS011;65104;52.994;6.552;2023-04-01T05:53:09;10.75;;;5.78;;
76296;SDS011;65104;52.994;6.552;2023-04-01T05:55:35;12.32;;;6.07;;
76296;SDS011;65104;52.994;6.552;2023-04-01T05:58:01;10.30;;;5.80;;
76296;SDS011;65104;52.994;6.552;2023-04-01T06:00:26;9.80;;;5.32;;
76296;SDS011;65104;52.994;6.552;2023-04-01T06:02:52;10.02;;;5.25;;
76296;SDS011;65104;52.994;6.552;2023-04-01T06:05:18;8.98;;;4.65;;
76296;SDS011;65104;52.994;6.552;2023-04-01T06:07:44;9.52;;;4.65;;
76296;SDS011;65104;52.994;6.552;2023-04-01T06:10:19;9.00;;;4.38;;
76296;SDS011;65104;52.994;6.552;2023-04-01T06:23:02;8.48;;;4.30;;
76296;SDS011;65104;52.994;6.552;2023-04-01T06:33:34;6.30;;;3.05;;
76296;SDS011;65104;52.994;6.552;2023-04-01T06:36:13;6.95;;;3.65;;
76296;SDS011;65104;52.994;6.552;2023-04-01T06:39:10;8.70;;;4.43;;
76296;SDS011;65104;52.994;6.552;2023-04-01T06:44:54;10.15;;;4.53;;
76296;SDS011;65104;52.994;6.552;2023-04-01T06:55:43;15.38;;;7.32;;
76296;SDS011;65104;52.994;6.552;2023-04-01T06:58:26;14.93;;;6.70;;
76296;SDS011;65104;52.994;6.552;2023-04-01T07:00:57;19.20;;;7.88;;
76296;SDS011;65104;52.994;6.552;2023-04-01T07:03:36;15.73;;;7.57;;
76296;SDS011;65104;52.994;6.552;2023-04-01T07:08:43;18.08;;;8.73;;
76296;SDS011;65104;52.994;6.552;2023-04-01T07:11:11;17.02;;;7.68;;
76296;SDS011;65104;52.994;6.552;2023-04-01T07:14:39;20.15;;;10.77;;
76296;SDS011;65104;52.994;6.552;2023-04-01T07:20:15;14.85;;;6.82;;
76296;SDS011;65104;52.994;6.552;2023-04-01T07:22:32;17.85;;;8.77;;
76296;SDS011;65104;52.994;6.552;2023-04-01T07:25:03;16.10;;;8.07;;
76296;SDS011;65104;52.994;6.552;2023-04-01T07:27:36;15.60;;;8.35;;
76296;SDS011;65104;52.994;6.552;2023-04-01T07:30:02;16.20;;;7.78;;
76296;SDS011;65104;52.994;6.552;2023-04-01T07:35:49;16.42;;;8.02;;
76296;SDS011;65104;52.994;6.552;2023-04-01T07:44:24;15.82;;;7.43;;
76296;SDS011;65104;52.994;6.552;2023-04-01T07:50:04;14.18;;;6.90;;
76296;SDS011;65104;52.994;6.552;2023-04-01T07:55:13;14.65;;;7.43;;
76296;SDS011;65104;52.994;6.552;2023-04-01T07:57:43;13.63;;;7.95;;
76296;SDS011;65104;52.994;6.552;2023-04-01T08:06:06;12.13;;;6.32;;
76296;SDS011;65104;52.994;6.552;2023-04-01T08:08:46;19.67;;;10.07;;
76296;SDS011;65104;52.994;6.552;2023-04-01T08:11:25;11.48;;;6.65;;
76296;SDS011;65104;52.994;6.552;2023-04-01T08:19:18;15.10;;;7.15;;
76296;SDS011;65104;52.994;6.552;2023-04-01T08:21:50;14.32;;;7.28;;
76296;SDS011;65104;52.994;6.552;2023-04-01T08:24:20;12.55;;;7.40;;
76296;SDS011;65104;52.994;6.552;2023-04-01T08:26:53;13.73;;;8.68;;
76296;SDS011;65104;52.994;6.552;2023-04-01T08:32:28;15.23;;;8.10;;
76296;SDS011;65104;52.994;6.552;2023-04-01T08:35:20;12.43;;;7.13;;
76296;SDS011;65104;52.994;6.552;2023-04-01T08:37:53;13.60;;;7.38;;
76296;SDS011;65104;52.994;6.552;2023-04-01T08:54:02;11.52;;;5.75;;
76296;SDS011;65104;52.994;6.552;2023-04-01T09:02:42;11.50;;;5.93;;
76296;SDS011;65104;52.994;6.552;2023-04-01T09:05:25;12.73;;;6.07;;
76296;SDS011;65104;52.994;6.552;2023-04-01T09:27:33;15.43;;;7.95;;
76296;SDS011;65104;52.994;6.552;2023-04-01T09:30:19;15.18;;;7.32;;
76296;SDS011;65104;52.994;6.552;2023-04-01T10:08:57;9.20;;;4.57;;
76296;SDS011;65104;52.994;6.552;2023-04-01T10:19:55;4.32;;;2.47;;
76296;SDS011;65104;52.994;6.552;2023-04-01T10:33:45;5.15;;;3.10;;
76296;SDS011;65104;52.994;6.552;2023-04-01T10:39:08;5.65;;;3.28;;
76296;SDS011;65104;52.994;6.552;2023-04-01T10:44:44;4.85;;;2.60;;
76296;SDS011;65104;52.994;6.552;2023-04-01T10:58:53;5.75;;;4.28;;
76296;SDS011;65104;52.994;6.552;2023-04-01T11:18:59;6.13;;;3.55;;
76296;SDS011;65104;52.994;6.552;2023-04-01T11:30:14;4.07;;;3.15;;
76296;SDS011;65104;52.994;6.552;2023-04-01T11:48:28;4.38;;;2.53;;
76296;SDS011;65104;52.994;6.552;2023-04-01T11:53:38;4.43;;;2.55;;
76296;SDS011;65104;52.994;6.552;2023-04-01T11:56:41;3.75;;;2.42;;
76296;SDS011;65104;52.994;6.552;2023-04-01T12:01:43;4.07;;;2.70;;
76296;SDS011;65104;52.994;6.552;2023-04-01T12:09:49;4.63;;;3.10;;
76296;SDS011;65104;52.994;6.552;2023-04-01T12:12:26;4.15;;;2.85;;
76296;SDS011;65104;52.994;6.552;2023-04-01T12:23:23;4.10;;;3.08;;
76296;SDS011;65104;52.994;6.552;2023-04-01T12:29:03;4.63;;;2.90;;
76296;SDS011;65104;52.994;6.552;2023-04-01T12:34:28;3.33;;;2.58;;
76296;SDS011;65104;52.994;6.552;2023-04-01T12:40:01;3.05;;;2.65;;
76296;SDS011;65104;52.994;6.552;2023-04-01T12:42:51;2.60;;;2.00;;
76296;SDS011;65104;52.994;6.552;2023-04-01T12:45:31;2.33;;;1.90;;
76296;SDS011;65104;52.994;6.552;2023-04-01T12:55:45;3.22;;;2.40;;
76296;SDS011;65104;52.994;6.552;2023-04-01T13:15:20;3.50;;;2.80;;
76296;SDS011;65104;52.994;6.552;2023-04-01T13:18:06;4.38;;;2.70;;
76296;SDS011;65104;52.994;6.552;2023-04-01T13:20:45;3.05;;;2.35;;
76296;SDS011;65104;52.994;6.552;2023-04-01T13:36:42;2.50;;;2.30;;
76296;SDS011;65104;52.994;6.552;2023-04-01T13:42:23;3.03;;;2.30;;
76296;SDS011;65104;52.994;6.552;2023-04-01T13:47:24;2.40;;;2.08;;
76296;SDS011;65104;52.994;6.552;2023-04-01T13:50:16;2.67;;;2.42;;
76296;SDS011;65104;52.994;6.552;2023-04-01T14:13:15;2.72;;;2.10;;
76296;SDS011;65104;52.994;6.552;2023-04-01T14:21:21;3.30;;;2.20;;
76296;SDS011;65104;52.994;6.552;2023-04-01T14:32:28;2.30;;;1.98;;
76296;SDS011;65104;52.994;6.552;2023-04-01T14:35:23;1.90;;;1.70;;
76296;SDS011;65104;52.994;6.552;2023-04-01T14:38:06;1.90;;;1.60;;
76296;SDS011;65104;52.994;6.552;2023-04-01T14:41:06;2.90;;;1.65;;
76296;SDS011;65104;52.994;6.552;2023-04-01T14:51:40;3.07;;;2.37;;
76296;SDS011;65104;52.994;6.552;2023-04-01T14:57:13;1.95;;;1.70;;
76296;SDS011;65104;52.994;6.552;2023-04-01T14:59:54;2.80;;;2.55;;
76296;SDS011;65104;52.994;6.552;2023-04-01T15:08:05;4.15;;;2.40;;
76296;SDS011;65104;52.994;6.552;2023-04-01T15:10:43;3.35;;;2.67;;
76296;SDS011;65104;52.994;6.552;2023-04-01T15:18:53;3.22;;;2.92;;
76296;SDS011;65104;52.994;6.552;2023-04-01T15:23:57;2.33;;;2.13;;
76296;SDS011;65104;52.994;6.552;2023-04-01T15:27:05;2.50;;;2.30;;
76296;SDS011;65104;52.994;6.552;2023-04-01T15:34:57;2.70;;;1.97;;
76296;SDS011;65104;52.994;6.552;2023-04-01T15:37:53;3.40;;;2.85;;
76296;SDS011;65104;52.994;6.552;2023-04-01T15:40:28;3.08;;;2.60;;
76296;SDS011;65104;52.994;6.552;2023-04-01T15:51:11;2.78;;;2.50;;
76296;SDS011;65104;52.994;6.552;2023-04-01T16:04:20;4.43;;;3.10;;
76296;SDS011;65104;52.994;6.552;2023-04-01T16:10:19;6.82;;;3.55;;
76296;SDS011;65104;52.994;6.552;2023-04-01T16:13:01;6.07;;;4.18;;
76296;SDS011;65104;52.994;6.552;2023-04-01T16:18:22;4.32;;;3.85;;
76296;SDS011;65104;52.994;6.552;2023-04-01T16:21:12;4.55;;;3.25;;
76296;SDS011;65104;52.994;6.552;2023-04-01T16:24:10;4.78;;;3.60;;
76296;SDS011;65104;52.994;6.552;2023-04-01T16:26:47;4.82;;;4.03;;
76296;SDS011;65104;52.994;6.552;2023-04-01T16:32:18;8.63;;;5.68;;
76296;SDS011;65104;52.994;6.552;2023-04-01T16:37:54;8.30;;;4.78;;
76296;SDS011;65104;52.994;6.552;2023-04-01T16:40:36;6.90;;;4.65;;
76296;SDS011;65104;52.994;6.552;2023-04-01T16:43:19;7.25;;;4.63;;
76296;SDS011;65104;52.994;6.552;2023-04-01T16:45:56;7.60;;;5.32;;
76296;SDS011;65104;52.994;6.552;2023-04-01T16:51:17;5.82;;;4.30;;
76296;SDS011;65104;52.994;6.552;2023-04-01T16:53:48;5.53;;;3.97;;
76296;SDS011;65104;52.994;6.552;2023-04-01T16:56:27;5.68;;;3.92;;
76296;SDS011;65104;52.994;6.552;2023-04-01T17:07:15;7.05;;;3.90;;
76296;SDS011;65104;52.994;6.552;2023-04-01T17:20:31;5.90;;;3.67;;
76296;SDS011;65104;52.994;6.552;2023-04-01T17:26:04;5.95;;;3.78;;
76296;SDS011;65104;52.994;6.552;2023-04-01T17:28:43;7.10;;;5.22;;
76296;SDS011;65104;52.994;6.552;2023-04-01T17:39:26;6.97;;;4.43;;
76296;SDS011;65104;52.994;6.552;2023-04-01T17:42:22;8.05;;;4.22;;
76296;SDS011;65104;52.994;6.552;2023-04-01T17:59:10;4.93;;;3.60;;
76296;SDS011;65104;52.994;6.552;2023-04-01T18:01:49;7.47;;;4.35;;
76296;SDS011;65104;52.994;6.552;2023-04-01T18:04:35;6.30;;;4.68;;
76296;SDS011;65104;52.994;6.552;2023-04-01T18:07:17;6.07;;;4.40;;
76296;SDS011;65104;52.994;6.552;2023-04-01T18:16:06;10.02;;;5.20;;
76296;SDS011;65104;52.994;6.552;2023-04-01T18:18:43;6.93;;;4.97;;
76296;SDS011;65104;52.994;6.552;2023-04-01T18:27:06;7.25;;;4.63;;
76296;SDS011;65104;52.994;6.552;2023-04-01T18:38:03;6.88;;;4.97;;
76296;SDS011;65104;52.994;6.552;2023-04-01T18:42:52;7.65;;;5.85;;
76296;SDS011;65104;52.994;6.552;2023-04-01T18:50:39;7.25;;;5.13;;
76296;SDS011;65104;52.994;6.552;2023-04-01T18:53:22;9.95;;;5.05;;
76296;SDS011;65104;52.994;6.552;2023-04-01T18:55:51;8.35;;;5.57;;
76296;SDS011;65104;52.994;6.552;2023-04-01T18:58:24;6.28;;;4.95;;
76296;SDS011;65104;52.994;6.552;2023-04-01T19:03:39;8.70;;;4.82;;
76296;SDS011;65104;52.994;6.552;2023-04-01T19:06:17;7.15;;;4.57;;
76296;SDS011;65104;52.994;6.552;2023-04-01T19:08:48;7.65;;;4.68;;
76296;SDS011;65104;52.994;6.552;2023-04-01T19:11:17;8.57;;;5.30;;
76296;SDS011;65104;52.994;6.552;2023-04-01T19:16:22;9.88;;;5.80;;
76296;SDS011;65104;52.994;6.552;2023-04-01T19:18:52;8.30;;;4.78;;
76296;SDS011;65104;52.994;6.552;2023-04-01T19:29:52;8.98;;;5.45;;
76296;SDS011;65104;52.994;6.552;2023-04-01T19:44:09;8.27;;;5.75;;
76296;SDS011;65104;52.994;6.552;2023-04-01T19:52:31;6.63;;;5.22;;
76296;SDS011;65104;52.994;6.552;2023-04-01T19:57:51;12.25;;;6.15;;
76296;SDS011;65104;52.994;6.552;2023-04-01T20:00:37;10.13;;;6.07;;
76296;SDS011;65104;52.994;6.552;2023-04-01T20:14:27;10.73;;;6.30;;
76296;SDS011;65104;52.994;6.552;2023-04-01T20:25:05;12.43;;;6.20;;
76296;SDS011;65104;52.994;6.552;2023-04-01T20:27:44;12.68;;;6.93;;
76296;SDS011;65104;52.994;6.552;2023-04-01T20:38:58;11.80;;;5.72;;
76296;SDS011;65104;52.994;6.552;2023-04-01T20:42:02;9.60;;;6.40;;
76296;SDS011;65104;52.994;6.552;2023-04-01T20:52:26;8.57;;;5.30;;
76296;SDS011;65104;52.994;6.552;2023-04-01T20:57:42;8.90;;;5.50;;
76296;SDS011;65104;52.994;6.552;2023-04-01T21:00:34;10.35;;;5.07;;
76296;SDS011;65104;52.994;6.552;2023-04-01T21:06:15;11.77;;;5.32;;
76296;SDS011;65104;52.994;6.552;2023-04-01T21:17:17;8.95;;;4.63;;
76296;SDS011;65104;52.994;6.552;2023-04-01T21:25:55;10.43;;;5.20;;
76296;SDS011;65104;52.994;6.552;2023-04-01T21:37:16;7.68;;;4.65;;
76296;SDS011;65104;52.994;6.552;2023-04-01T21:39:47;8.68;;;4.80;;
76296;SDS011;65104;52.994;6.552;2023-04-01T21:56:59;9.27;;;4.40;;
76296;SDS011;65104;52.994;6.552;2023-04-01T22:02:15;7.13;;;4.22;;
76296;SDS011;65104;52.994;6.552;2023-04-01T22:12:54;6.82;;;4.57;;
76296;SDS011;65104;52.994;6.552;2023-04-01T22:20:57;7.22;;;4.00;;
76296;SDS011;65104;52.994;6.552;2023-04-01T22:30:59;8.45;;;4.85;;
76296;SDS011;65104;52.994;6.552;2023-04-01T22:38:52;6.65;;;4.35;;
76296;SDS011;65104;52.994;6.552;2023-04-01T22:44:34;5.15;;;3.10;;
76296;SDS011;65104;52.994;6.552;2023-04-01T22:47:19;4.28;;;3.60;;
76296;SDS011;65104;52.994;6.552;2023-04-01T22:49:57;4.68;;;3.80;;
76296;SDS011;65104;52.994;6.552;2023-04-01T22:54:56;9.07;;;4.47;;
76296;SDS011;65104;52.994;6.552;2023-04-01T23:02:37;6.07;;;3.85;;
76296;SDS011;65104;52.994;6.552;2023-04-01T23:05:09;7.35;;;3.85;;
76296;SDS011;65104;52.994;6.552;2023-04-01T23:10:23;7.07;;;4.13;;
76296;SDS011;65104;52.994;6.552;2023-04-01T23:12:55;5.32;;;3.78;;
76296;SDS011;65104;52.994;6.552;2023-04-01T23:15:23;6.53;;;3.38;;
76296;SDS011;65104;52.994;6.552;2023-04-01T23:20:36;9.30;;;4.95;;
76296;SDS011;65104;52.994;6.552;2023-04-01T23:24:00;7.15;;;3.75;;
76296;SDS011;65104;52.994;6.552;2023-04-01T23:27:05;10.18;;;4.50;;
76296;SDS011;65104;52.994;6.552;2023-04-01T23:29:37;7.10;;;3.65;;
76296;SDS011;65104;52.994;6.552;2023-04-01T23:32:04;5.88;;;3.47;;
76296;SDS011;65104;52.994;6.552;2023-04-01T23:34:38;5.93;;;3.60;;
76296;SDS011;65104;52.994;6.552;2023-04-01T23:37:04;5.53;;;3.28;;
76296;SDS011;65104;52.994;6.552;2023-04-01T23:39:39;7.72;;;3.78;;
76296;SDS011;65104;52.994;6.552;2023-04-01T23:42:28;11.80;;;4.75;;
76296;SDS011;65104;52.994;6.552;2023-04-01T23:44:56;5.70;;;3.55;;
76296;SDS011;65104;52.994;6.552;2023-04-01T23:47:31;5.78;;;4.05;;
76296;SDS011;65104;52.994;6.552;2023-04-01T23:50:06;7.72;;;4.18;;
76296;SDS011;65104;52.994;6.552;2023-04-01T23:52:39;8.52;;;4.43;;
76296;SDS011;65104;52.994;6.552;2023-04-01T23:55:44;6.80;;;3.95;;
